Terminal Aerodrome Forecast
Issued by NWS Blacksburg, VA

Home | Current Version | Previous Version | Text Only | Print | Product List | Glossary On
Versions: 1 2 3 4 5 6 7 8 9 10 11 12 13 14 15 16 17 18 19 20 21 22 23 24
000
FTUS41 KRNK 250520
TAFBLF
TAF
KBLF 250520Z 2506/2606 26006KT P6SM SKC
      TEMPO 2509/2512 4SM BR
     FM251600 27008KT P6SM FEW040 SCT080
     FM260000 27007KT P6SM SCT030 BKN250=

USA.gov is the U.S. government's official web portal to all federal, state and local government web resources and services.